sensor_id;sensor_type;location;lat;lon;timestamp;pressure;altitude;pressure_sealevel;temperature;humidity
8637;BME280;4356;49.068;8.658;2023-02-01T00:01:45;100603.31;;;15.51;36.15
8637;BME280;4356;49.068;8.658;2023-02-01T00:04:10;100604.59;;;15.55;36.00
8637;BME280;4356;49.068;8.658;2023-02-01T00:06:36;100587.22;;;15.49;36.21
8637;BME280;4356;49.068;8.658;2023-02-01T00:09:02;100583.50;;;15.50;36.47
8637;BME280;4356;49.068;8.658;2023-02-01T00:11:28;100576.88;;;15.53;36.23
8637;BME280;4356;49.068;8.658;2023-02-01T00:13:54;100557.25;;;15.51;36.38
8637;BME280;4356;49.068;8.658;2023-02-01T00:16:27;100535.47;;;15.44;36.49
8637;BME280;4356;49.068;8.658;2023-02-01T00:19:05;100552.00;;;15.49;36.08
8637;BME280;4356;49.068;8.658;2023-02-01T00:21:34;100543.97;;;15.41;36.31
8637;BME280;4356;49.068;8.658;2023-02-01T00:24:00;100531.06;;;15.28;36.25
8637;BME280;4356;49.068;8.658;2023-02-01T00:26:34;100545.84;;;15.40;36.24
8637;BME280;4356;49.068;8.658;2023-02-01T00:29:01;100541.63;;;15.38;36.37
8637;BME280;4356;49.068;8.658;2023-02-01T00:31:28;100510.69;;;15.18;36.33
8637;BME280;4356;49.068;8.658;2023-02-01T00:33:54;100513.50;;;15.24;36.31
8637;BME280;4356;49.068;8.658;2023-02-01T00:36:20;100520.56;;;15.25;36.73
8637;BME280;4356;49.068;8.658;2023-02-01T00:38:46;100530.94;;;15.36;36.59
8637;BME280;4356;49.068;8.658;2023-02-01T00:41:14;100537.22;;;15.37;36.36
8637;BME280;4356;49.068;8.658;2023-02-01T00:43:40;100523.28;;;15.25;36.30
8637;BME280;4356;49.068;8.658;2023-02-01T00:46:07;100540.97;;;15.36;36.46
8637;BME280;4356;49.068;8.658;2023-02-01T00:48:33;100546.72;;;15.33;36.66
8637;BME280;4356;49.068;8.658;2023-02-01T00:51:04;100546.53;;;15.34;36.33
8637;BME280;4356;49.068;8.658;2023-02-01T00:53:30;100515.34;;;15.24;36.60
8637;BME280;4356;49.068;8.658;2023-02-01T00:55:56;100530.22;;;15.28;36.68
8637;BME280;4356;49.068;8.658;2023-02-01T00:58:22;100510.31;;;15.21;36.55
8637;BME280;4356;49.068;8.658;2023-02-01T01:03:30;100536.28;;;15.30;36.46
8637;BME280;4356;49.068;8.658;2023-02-01T01:05:59;100545.44;;;15.29;36.50
8637;BME280;4356;49.068;8.658;2023-02-01T01:08:26;100544.41;;;15.30;36.55
8637;BME280;4356;49.068;8.658;2023-02-01T01:10:52;100549.16;;;15.28;36.47
8637;BME280;4356;49.068;8.658;2023-02-01T01:13:20;100544.00;;;15.18;36.57
8637;BME280;4356;49.068;8.658;2023-02-01T01:15:46;100572.53;;;15.29;36.81
8637;BME280;4356;49.068;8.658;2023-02-01T01:18:12;100560.84;;;15.28;36.70
8637;BME280;4356;49.068;8.658;2023-02-01T01:20:40;100549.06;;;15.21;36.62
8637;BME280;4356;49.068;8.658;2023-02-01T01:23:07;100552.97;;;15.19;36.50
8637;BME280;4356;49.068;8.658;2023-02-01T01:25:37;100567.09;;;15.29;37.05
8637;BME280;4356;49.068;8.658;2023-02-01T01:28:03;100553.38;;;15.30;36.71
8637;BME280;4356;49.068;8.658;2023-02-01T01:30:28;100567.75;;;15.31;36.96
8637;BME280;4356;49.068;8.658;2023-02-01T01:32:54;100566.91;;;15.30;36.72
8637;BME280;4356;49.068;8.658;2023-02-01T01:35:20;100558.69;;;15.24;36.88
8637;BME280;4356;49.068;8.658;2023-02-01T01:37:45;100569.16;;;15.27;36.96
8637;BME280;4356;49.068;8.658;2023-02-01T01:40:12;100556.34;;;15.21;36.60
8637;BME280;4356;49.068;8.658;2023-02-01T01:42:42;100552.97;;;15.19;36.73
8637;BME280;4356;49.068;8.658;2023-02-01T01:45:29;100550.09;;;15.20;36.88
8637;BME280;4356;49.068;8.658;2023-02-01T01:48:03;100570.44;;;15.31;37.16
8637;BME280;4356;49.068;8.658;2023-02-01T01:50:40;100557.00;;;15.23;36.67
8637;BME280;4356;49.068;8.658;2023-02-01T01:53:12;100543.19;;;15.18;36.66
8637;BME280;4356;49.068;8.658;2023-02-01T01:55:42;100549.34;;;15.26;36.76
8637;BME280;4356;49.068;8.658;2023-02-01T01:58:13;100549.63;;;15.31;36.52
8637;BME280;4356;49.068;8.658;2023-02-01T02:00:41;100546.91;;;15.31;36.76
8637;BME280;4356;49.068;8.658;2023-02-01T02:03:22;100547.31;;;15.28;36.93
8637;BME280;4356;49.068;8.658;2023-02-01T02:05:50;100534.13;;;15.25;36.55
8637;BME280;4356;49.068;8.658;2023-02-01T02:08:17;100530.59;;;15.25;36.90
8637;BME280;4356;49.068;8.658;2023-02-01T02:10:47;100537.13;;;15.30;36.54
8637;BME280;4356;49.068;8.658;2023-02-01T02:13:32;100537.31;;;15.29;36.57
8637;BME280;4356;49.068;8.658;2023-02-01T02:16:45;100534.97;;;15.26;36.60
8637;BME280;4356;49.068;8.658;2023-02-01T02:19:31;100523.13;;;15.27;36.91
8637;BME280;4356;49.068;8.658;2023-02-01T02:31:12;100515.34;;;15.24;37.03
8637;BME280;4356;49.068;8.658;2023-02-01T02:36:30;100509.47;;;15.20;36.57
8637;BME280;4356;49.068;8.658;2023-02-01T02:41:59;100504.06;;;15.20;37.00
8637;BME280;4356;49.068;8.658;2023-02-01T02:50:37;100471.69;;;15.12;36.59
8637;BME280;4356;49.068;8.658;2023-02-01T02:53:32;100484.34;;;15.12;36.97
8637;BME280;4356;49.068;8.658;2023-02-01T02:56:18;100498.94;;;15.11;36.88
8637;BME280;4356;49.068;8.658;2023-02-01T02:59:06;100494.72;;;15.08;36.95
8637;BME280;4356;49.068;8.658;2023-02-01T03:01:52;100483.44;;;15.05;36.53
8637;BME280;4356;49.068;8.658;2023-02-01T03:04:37;100480.72;;;15.05;36.67
8637;BME280;4356;49.068;8.658;2023-02-01T03:07:46;100475.31;;;15.05;36.87
8637;BME280;4356;49.068;8.658;2023-02-01T03:10:05;100476.78;;;15.07;37.10
8637;BME280;4356;49.068;8.658;2023-02-01T03:12:36;100470.56;;;15.07;36.81
8637;BME280;4356;49.068;8.658;2023-02-01T03:15:38;100462.63;;;15.05;36.81
8637;BME280;4356;49.068;8.658;2023-02-01T03:18:13;100471.75;;;15.04;37.16
8637;BME280;4356;49.068;8.658;2023-02-01T03:20:44;100473.59;;;15.04;37.13
8637;BME280;4356;49.068;8.658;2023-02-01T03:23:15;100467.56;;;15.02;37.31
8637;BME280;4356;49.068;8.658;2023-02-01T03:25:43;100443.00;;;14.89;37.36
8637;BME280;4356;49.068;8.658;2023-02-01T03:28:10;100470.44;;;15.00;36.71
8637;BME280;4356;49.068;8.658;2023-02-01T03:30:42;100472.13;;;15.01;37.44
8637;BME280;4356;49.068;8.658;2023-02-01T03:33:17;100461.75;;;14.90;37.04
8637;BME280;4356;49.068;8.658;2023-02-01T03:41:38;100453.00;;;15.03;37.24
8637;BME280;4356;49.068;8.658;2023-02-01T03:46:56;100420.25;;;14.98;37.42
8637;BME280;4356;49.068;8.658;2023-02-01T03:49:35;100413.97;;;14.97;37.13
8637;BME280;4356;49.068;8.658;2023-02-01T03:52:06;100433.13;;;14.96;37.22
8637;BME280;4356;49.068;8.658;2023-02-01T03:54:35;100428.09;;;14.93;37.14
8637;BME280;4356;49.068;8.658;2023-02-01T03:57:06;100425.38;;;14.93;37.17
8637;BME280;4356;49.068;8.658;2023-02-01T03:59:33;100419.97;;;14.93;37.36
8637;BME280;4356;49.068;8.658;2023-02-01T04:01:59;100431.81;;;14.92;36.83
8637;BME280;4356;49.068;8.658;2023-02-01T04:04:25;100430.28;;;14.89;37.50
8637;BME280;4356;49.068;8.658;2023-02-01T04:06:51;100430.69;;;14.86;37.70
8637;BME280;4356;49.068;8.658;2023-02-01T04:09:17;100441.97;;;14.90;37.21
8637;BME280;4356;49.068;8.658;2023-02-01T04:11:43;100467.56;;;14.87;37.31
8637;BME280;4356;49.068;8.658;2023-02-01T04:14:09;100484.13;;;14.84;37.29
8637;BME280;4356;49.068;8.658;2023-02-01T04:16:34;100488.81;;;14.90;37.42
8637;BME280;4356;49.068;8.658;2023-02-01T04:19:00;100486.03;;;14.84;37.36
8637;BME280;4356;49.068;8.658;2023-02-01T04:21:27;100483.59;;;14.89;37.58
8637;BME280;4356;49.068;8.658;2023-02-01T04:23:53;100472.97;;;14.87;37.16
8637;BME280;4356;49.068;8.658;2023-02-01T04:26:19;100441.59;;;14.78;37.10
8637;BME280;4356;49.068;8.658;2023-02-01T04:28:46;100443.19;;;14.73;37.07
8637;BME280;4356;49.068;8.658;2023-02-01T04:31:15;100459.59;;;14.86;37.28
8637;BME280;4356;49.068;8.658;2023-02-01T04:33:41;100462.31;;;14.86;37.70
8637;BME280;4356;49.068;8.658;2023-02-01T04:36:07;100441.88;;;14.83;37.34
8637;BME280;4356;49.068;8.658;2023-02-01T04:38:33;100448.59;;;14.87;37.28
8637;BME280;4356;49.068;8.658;2023-02-01T04:40:59;100431.91;;;14.84;37.27
8637;BME280;4356;49.068;8.658;2023-02-01T04:43:25;100426.28;;;14.71;37.29
8637;BME280;4356;49.068;8.658;2023-02-01T04:45:51;100448.13;;;14.84;37.64
8637;BME280;4356;49.068;8.658;2023-02-01T04:48:18;100450.19;;;14.82;37.42
8637;BME280;4356;49.068;8.658;2023-02-01T04:50:45;100438.97;;;14.70;37.80
8637;BME280;4356;49.068;8.658;2023-02-01T04:53:16;100455.13;;;14.78;37.28
8637;BME280;4356;49.068;8.658;2023-02-01T04:55:43;100478.44;;;14.79;37.25
8637;BME280;4356;49.068;8.658;2023-02-01T04:58:09;100468.25;;;14.67;37.49
8637;BME280;4356;49.068;8.658;2023-02-01T05:00:36;100481.81;;;14.81;37.47
8637;BME280;4356;49.068;8.658;2023-02-01T05:03:02;100444.91;;;14.66;37.93
8637;BME280;4356;49.068;8.658;2023-02-01T05:05:28;100453.53;;;14.69;37.69
8637;BME280;4356;49.068;8.658;2023-02-01T05:07:53;100445.88;;;14.73;37.87
8637;BME280;4356;49.068;8.658;2023-02-01T05:10:19;100447.84;;;14.79;37.68
8637;BME280;4356;49.068;8.658;2023-02-01T05:12:45;100443.66;;;14.76;38.05
8637;BME280;4356;49.068;8.658;2023-02-01T05:15:30;100456.78;;;14.79;37.72
8637;BME280;4356;49.068;8.658;2023-02-01T05:17:57;100458.66;;;14.79;37.75
8637;BME280;4356;49.068;8.658;2023-02-01T05:20:23;100464.72;;;14.81;37.57
8637;BME280;4356;49.068;8.658;2023-02-01T05:22:49;100451.91;;;14.75;37.88
8637;BME280;4356;49.068;8.658;2023-02-01T05:25:15;100459.69;;;14.78;37.43
8637;BME280;4356;49.068;8.658;2023-02-01T05:27:41;100439.50;;;14.66;37.82
8637;BME280;4356;49.068;8.658;2023-02-01T05:30:08;100453.34;;;14.71;37.75
8637;BME280;4356;49.068;8.658;2023-02-01T05:32:34;100447.16;;;14.62;37.91
8637;BME280;4356;49.068;8.658;2023-02-01T05:34:59;100460.38;;;14.57;37.75
8637;BME280;4356;49.068;8.658;2023-02-01T05:37:25;100491.03;;;14.72;37.72
8637;BME280;4356;49.068;8.658;2023-02-01T05:39:51;100492.03;;;14.71;37.95
8637;BME280;4356;49.068;8.658;2023-02-01T05:42:17;100482.97;;;14.64;37.55
8637;BME280;4356;49.068;8.658;2023-02-01T05:44:43;100496.97;;;14.68;37.76
8637;BME280;4356;49.068;8.658;2023-02-01T05:47:12;100456.06;;;14.48;38.07
8637;BME280;4356;49.068;8.658;2023-02-01T05:49:41;100473.38;;;14.62;37.96
8637;BME280;4356;49.068;8.658;2023-02-01T05:52:06;100444.25;;;14.49;38.28
8637;BME280;4356;49.068;8.658;2023-02-01T05:54:32;100480.75;;;14.68;37.83
8637;BME280;4356;49.068;8.658;2023-02-01T05:56:58;100482.63;;;14.67;38.22
8637;BME280;4356;49.068;8.658;2023-02-01T05:59:23;100463.56;;;14.61;37.54
8637;BME280;4356;49.068;8.658;2023-02-01T06:01:49;100489.88;;;14.67;37.54
8637;BME280;4356;49.068;8.658;2023-02-01T06:04:15;100486.53;;;14.65;37.95
8637;BME280;4356;49.068;8.658;2023-02-01T06:06:41;100481.00;;;14.58;38.32
8637;BME280;4356;49.068;8.658;2023-02-01T06:09:06;100490.38;;;14.70;38.49
8637;BME280;4356;49.068;8.658;2023-02-01T06:11:32;100490.19;;;14.72;38.21
8637;BME280;4356;49.068;8.658;2023-02-01T06:13:58;100492.69;;;14.73;38.05
8637;BME280;4356;49.068;8.658;2023-02-01T06:16:24;100486.09;;;14.76;37.73
8637;BME280;4356;49.068;8.658;2023-02-01T06:18:50;100472.75;;;14.74;37.95
8637;BME280;4356;49.068;8.658;2023-02-01T06:21:15;100455.84;;;14.72;38.06
8637;BME280;4356;49.068;8.658;2023-02-01T06:23:53;100474.06;;;14.78;38.01
8637;BME280;4356;49.068;8.658;2023-02-01T06:26:23;100461.16;;;14.80;38.00
8637;BME280;4356;49.068;8.658;2023-02-01T06:28:49;100477.81;;;14.92;38.12
8637;BME280;4356;49.068;8.658;2023-02-01T06:31:15;100461.28;;;14.87;37.89
8637;BME280;4356;49.068;8.658;2023-02-01T06:33:41;100433.94;;;14.82;37.93
8637;BME280;4356;49.068;8.658;2023-02-01T06:36:07;100475.19;;;14.98;37.89
8637;BME280;4356;49.068;8.658;2023-02-01T06:38:35;100462.22;;;14.94;38.15
8637;BME280;4356;49.068;8.658;2023-02-01T06:41:02;100473.31;;;14.99;37.94
8637;BME280;4356;49.068;8.658;2023-02-01T06:43:29;100480.06;;;15.03;37.98
8637;BME280;4356;49.068;8.658;2023-02-01T06:46:00;100505.63;;;15.15;37.85
8637;BME280;4356;49.068;8.658;2023-02-01T06:48:33;100485.41;;;15.11;37.74
8637;BME280;4356;49.068;8.658;2023-02-01T06:50:59;100486.41;;;15.10;38.20
8637;BME280;4356;49.068;8.658;2023-02-01T06:53:25;100518.06;;;15.24;37.73
8637;BME280;4356;49.068;8.658;2023-02-01T06:55:57;100512.28;;;15.27;38.11
8637;BME280;4356;49.068;8.658;2023-02-01T06:58:23;100513.22;;;15.19;37.88
8637;BME280;4356;49.068;8.658;2023-02-01T07:00:49;100515.28;;;15.32;37.82
8637;BME280;4356;49.068;8.658;2023-02-01T07:03:16;100502.13;;;15.29;37.55
8637;BME280;4356;49.068;8.658;2023-02-01T07:05:42;100510.28;;;15.43;38.03
8637;BME280;4356;49.068;8.658;2023-02-01T07:08:07;100515.13;;;15.48;37.80
8637;BME280;4356;49.068;8.658;2023-02-01T07:10:37;100511.88;;;15.53;37.83
8637;BME280;4356;49.068;8.658;2023-02-01T07:13:03;100505.66;;;15.59;37.72
8637;BME280;4356;49.068;8.658;2023-02-01T07:15:31;100502.75;;;15.60;37.77
8637;BME280;4356;49.068;8.658;2023-02-01T07:17:57;100526.41;;;15.66;37.97
8637;BME280;4356;49.068;8.658;2023-02-01T07:20:23;100518.66;;;15.63;37.91
8637;BME280;4356;49.068;8.658;2023-02-01T07:22:48;100533.88;;;15.64;37.66
8637;BME280;4356;49.068;8.658;2023-02-01T07:25:19;100537.72;;;15.70;37.82
8637;BME280;4356;49.068;8.658;2023-02-01T07:27:45;100534.00;;;15.71;37.45
8637;BME280;4356;49.068;8.658;2023-02-01T07:30:12;100511.75;;;15.61;37.62
8637;BME280;4356;49.068;8.658;2023-02-01T07:32:37;100524.16;;;15.70;37.76
8637;BME280;4356;49.068;8.658;2023-02-01T07:35:03;100528.56;;;15.71;37.65
8637;BME280;4356;49.068;8.658;2023-02-01T07:37:35;100526.47;;;15.73;37.86
8637;BME280;4356;49.068;8.658;2023-02-01T07:40:03;100538.81;;;15.75;37.69
8637;BME280;4356;49.068;8.658;2023-02-01T07:42:28;100496.34;;;15.61;37.61
8637;BME280;4356;49.068;8.658;2023-02-01T07:44:57;100503.53;;;15.69;37.74
8637;BME280;4356;49.068;8.658;2023-02-01T07:47:23;100522.00;;;15.80;37.95
8637;BME280;4356;49.068;8.658;2023-02-01T07:49:49;100515.56;;;15.81;37.63
8637;BME280;4356;49.068;8.658;2023-02-01T07:52:14;100500.69;;;15.77;37.96
8637;BME280;4356;49.068;8.658;2023-02-01T07:54:42;100502.19;;;15.79;37.51
8637;BME280;4356;49.068;8.658;2023-02-01T07:57:08;100516.41;;;15.81;37.84
8637;BME280;4356;49.068;8.658;2023-02-01T07:59:36;100512.66;;;15.82;37.93
8637;BME280;4356;49.068;8.658;2023-02-01T08:02:22;100514.91;;;15.79;37.59
8637;BME280;4356;49.068;8.658;2023-02-01T08:04:47;100518.25;;;15.81;37.77
8637;BME280;4356;49.068;8.658;2023-02-01T08:07:13;100509.47;;;15.79;37.82
8637;BME280;4356;49.068;8.658;2023-02-01T08:09:39;100513.69;;;15.81;37.93
8637;BME280;4356;49.068;8.658;2023-02-01T08:12:04;100509.94;;;15.82;38.01
8637;BME280;4356;49.068;8.658;2023-02-01T08:14:30;100520.13;;;15.80;37.76
8637;BME280;4356;49.068;8.658;2023-02-01T08:16:56;100525.34;;;15.82;37.95
8637;BME280;4356;49.068;8.658;2023-02-01T08:19:21;100544.63;;;15.87;37.83
8637;BME280;4356;49.068;8.658;2023-02-01T08:21:47;100546.66;;;15.85;37.75
8637;BME280;4356;49.068;8.658;2023-02-01T08:24:14;100537.78;;;15.76;37.89
8637;BME280;4356;49.068;8.658;2023-02-01T08:26:40;100556.28;;;15.87;37.69
8637;BME280;4356;49.068;8.658;2023-02-01T08:29:07;100557.59;;;15.91;37.78
8637;BME280;4356;49.068;8.658;2023-02-01T08:31:33;100563.19;;;15.90;38.06
8637;BME280;4356;49.068;8.658;2023-02-01T08:34:02;100554.34;;;15.81;37.81
8637;BME280;4356;49.068;8.658;2023-02-01T08:36:33;100543.84;;;15.78;37.81
8637;BME280;4356;49.068;8.658;2023-02-01T08:38:59;100547.88;;;15.82;38.08
8637;BME280;4356;49.068;8.658;2023-02-01T08:41:27;100547.88;;;15.82;38.01
8637;BME280;4356;49.068;8.658;2023-02-01T08:43:55;100567.22;;;15.94;37.87
8637;BME280;4356;49.068;8.658;2023-02-01T08:46:21;100556.47;;;15.86;37.75
8637;BME280;4356;49.068;8.658;2023-02-01T08:48:48;100573.09;;;15.97;38.02
8637;BME280;4356;49.068;8.658;2023-02-01T08:51:16;100569.75;;;15.95;37.87
8637;BME280;4356;49.068;8.658;2023-02-01T08:53:42;100560.03;;;15.86;37.71
8637;BME280;4356;49.068;8.658;2023-02-01T08:56:10;100546.56;;;15.78;37.87
8637;BME280;4356;49.068;8.658;2023-02-01T08:58:36;100578.97;;;16.01;37.55
8637;BME280;4356;49.068;8.658;2023-02-01T09:01:06;100565.06;;;15.89;37.66
8637;BME280;4356;49.068;8.658;2023-02-01T09:03:32;100559.53;;;15.97;37.86
8637;BME280;4356;49.068;8.658;2023-02-01T09:06:03;100576.94;;;16.03;37.90
8637;BME280;4356;49.068;8.658;2023-02-01T09:08:29;100566.09;;;16.03;37.70
8637;BME280;4356;49.068;8.658;2023-02-01T09:11:00;100572.72;;;16.00;37.87
8637;BME280;4356;49.068;8.658;2023-02-01T09:13:26;100542.16;;;15.92;37.79
8637;BME280;4356;49.068;8.658;2023-02-01T09:15:52;100554.97;;;15.98;37.76
8637;BME280;4356;49.068;8.658;2023-02-01T09:18:17;100555.03;;;16.04;37.61
8637;BME280;4356;49.068;8.658;2023-02-01T09:20:43;100555.97;;;16.11;37.83
8637;BME280;4356;49.068;8.658;2023-02-01T09:23:08;100549.53;;;16.12;37.66
8637;BME280;4356;49.068;8.658;2023-02-01T09:25:36;100542.47;;;16.18;37.82
8637;BME280;4356;49.068;8.658;2023-02-01T09:28:03;100550.88;;;16.23;37.75
8637;BME280;4356;49.068;8.658;2023-02-01T09:30:32;100524.47;;;16.10;37.73
8637;BME280;4356;49.068;8.658;2023-02-01T09:32:58;100559.09;;;16.29;37.73
8637;BME280;4356;49.068;8.658;2023-02-01T09:35:23;100558.88;;;16.31;38.05
8637;BME280;4356;49.068;8.658;2023-02-01T09:37:49;100553.72;;;16.36;37.54
8637;BME280;4356;49.068;8.658;2023-02-01T09:40:16;100561.03;;;16.35;37.73
8637;BME280;4356;49.068;8.658;2023-02-01T09:43:16;100559.63;;;16.39;37.51
8637;BME280;4356;49.068;8.658;2023-02-01T09:46:04;100571.09;;;16.41;37.37
8637;BME280;4356;49.068;8.658;2023-02-01T09:48:34;100569.69;;;16.45;37.52
8637;BME280;4356;49.068;8.658;2023-02-01T09:51:04;100561.94;;;16.42;37.19
8637;BME280;4356;49.068;8.658;2023-02-01T09:53:35;100579.81;;;16.52;37.27
8637;BME280;4356;49.068;8.658;2023-02-01T09:56:21;100585.03;;;16.53;37.39
8637;BME280;4356;49.068;8.658;2023-02-01T09:58:58;100586.34;;;16.57;37.19
8637;BME280;4356;49.068;8.658;2023-02-01T10:01:30;100580.66;;;16.52;37.18
8637;BME280;4356;49.068;8.658;2023-02-01T10:04:05;100597.91;;;16.66;37.17
8637;BME280;4356;49.068;8.658;2023-02-01T10:07:01;100607.34;;;16.70;37.37
8637;BME280;4356;49.068;8.658;2023-02-01T10:12:41;100628.66;;;16.73;37.13
8637;BME280;4356;49.068;8.658;2023-02-01T10:15:40;100636.00;;;16.72;36.93
8637;BME280;4356;49.068;8.658;2023-02-01T10:26:27;100637.59;;;16.67;37.01
8637;BME280;4356;49.068;8.658;2023-02-01T10:29:03;100638.22;;;16.69;37.09
8637;BME280;4356;49.068;8.658;2023-02-01T10:31:33;100643.66;;;16.69;37.12
8637;BME280;4356;49.068;8.658;2023-02-01T10:34:24;100626.75;;;16.67;37.03
8637;BME280;4356;49.068;8.658;2023-02-01T10:37:23;100640.84;;;16.77;36.88
8637;BME280;4356;49.068;8.658;2023-02-01T10:39:53;100647.94;;;16.78;37.15
8637;BME280;4356;49.068;8.658;2023-02-01T10:42:23;100638.75;;;16.79;37.02
8637;BME280;4356;49.068;8.658;2023-02-01T10:44:49;100632.03;;;16.75;36.63
8637;BME280;4356;49.068;8.658;2023-02-01T10:47:16;100647.94;;;16.78;36.80
8637;BME280;4356;49.068;8.658;2023-02-01T10:52:58;100646.06;;;16.78;36.75
8637;BME280;4356;49.068;8.658;2023-02-01T10:58:26;100639.63;;;16.79;36.81
8637;BME280;4356;49.068;8.658;2023-02-01T11:01:04;100620.97;;;16.76;36.59
8637;BME280;4356;49.068;8.658;2023-02-01T11:03:36;100630.03;;;16.83;36.75
8637;BME280;4356;49.068;8.658;2023-02-01T11:06:18;100624.78;;;16.82;36.70
8637;BME280;4356;49.068;8.658;2023-02-01T11:08:50;100615.63;;;16.83;36.75
8637;BME280;4356;49.068;8.658;2023-02-01T11:11:17;100602.88;;;16.83;36.73
8637;BME280;4356;49.068;8.658;2023-02-01T11:13:43;100608.16;;;16.85;36.55
8637;BME280;4356;49.068;8.658;2023-02-01T11:16:16;100581.88;;;16.71;36.50
8637;BME280;4356;49.068;8.658;2023-02-01T11:18:43;100569.16;;;16.71;36.71
8637;BME280;4356;49.068;8.658;2023-02-01T11:21:10;100571.03;;;16.71;36.63
8637;BME280;4356;49.068;8.658;2023-02-01T11:23:42;100571.09;;;16.77;36.70
8637;BME280;4356;49.068;8.658;2023-02-01T11:26:23;100550.81;;;16.73;36.62
8637;BME280;4356;49.068;8.658;2023-02-01T11:29:02;100560.50;;;16.82;36.51
8637;BME280;4356;49.068;8.658;2023-02-01T11:31:28;100550.69;;;16.81;36.48
8637;BME280;4356;49.068;8.658;2023-02-01T11:34:00;100542.25;;;16.76;36.38
8637;BME280;4356;49.068;8.658;2023-02-01T11:36:31;100558.63;;;16.83;36.42
8637;BME280;4356;49.068;8.658;2023-02-01T11:39:29;100554.03;;;16.83;36.73
8637;BME280;4356;49.068;8.658;2023-02-01T11:42:15;100556.72;;;16.83;36.26
8637;BME280;4356;49.068;8.658;2023-02-01T11:44:43;100536.63;;;16.78;36.66
8637;BME280;4356;49.068;8.658;2023-02-01T11:47:29;100537.28;;;16.80;36.56
8637;BME280;4356;49.068;8.658;2023-02-01T11:50:12;100550.84;;;16.80;36.60
8637;BME280;4356;49.068;8.658;2023-02-01T11:55:50;100553.19;;;16.83;36.50
8637;BME280;4356;49.068;8.658;2023-02-01T12:09:45;100546.53;;;16.85;36.53
8637;BME280;4356;49.068;8.658;2023-02-01T12:12:30;100549.03;;;16.87;36.63
8637;BME280;4356;49.068;8.658;2023-02-01T12:18:08;100559.72;;;16.88;36.76
8637;BME280;4356;49.068;8.658;2023-02-01T12:32:51;100547.41;;;16.92;36.76
8637;BME280;4356;49.068;8.658;2023-02-01T12:35:44;100546.19;;;16.95;36.83
8637;BME280;4356;49.068;8.658;2023-02-01T12:41:06;100539.47;;;16.91;36.69
8637;BME280;4356;49.068;8.658;2023-02-01T12:43:42;100531.72;;;16.88;36.79
8637;BME280;4356;49.068;8.658;2023-02-01T12:46:25;100537.59;;;16.91;36.65
8637;BME280;4356;49.068;8.658;2023-02-01T12:49:01;100542.06;;;16.99;36.62
8637;BME280;4356;49.068;8.658;2023-02-01T12:51:39;100532.63;;;16.95;36.56
8637;BME280;4356;49.068;8.658;2023-02-01T12:54:12;100537.47;;;16.99;36.56
8637;BME280;4356;49.068;8.658;2023-02-01T12:57:06;100534.56;;;17.01;36.57
8637;BME280;4356;49.068;8.658;2023-02-01T12:59:47;100520.81;;;17.09;36.36
8637;BME280;4356;49.068;8.658;2023-02-01T13:08:25;100504.28;;;17.66;35.06
8637;BME280;4356;49.068;8.658;2023-02-01T13:11:00;100513.38;;;17.86;35.16
8637;BME280;4356;49.068;8.658;2023-02-01T13:13:35;100489.59;;;18.01;35.13
8637;BME280;4356;49.068;8.658;2023-02-01T13:16:23;100500.50;;;18.20;34.54
8637;BME280;4356;49.068;8.658;2023-02-01T13:19:08;100491.13;;;18.29;34.64
8637;BME280;4356;49.068;8.658;2023-02-01T13:21:40;100495.09;;;18.40;34.26
8637;BME280;4356;49.068;8.658;2023-02-01T13:24:33;100476.50;;;18.43;34.12
8637;BME280;4356;49.068;8.658;2023-02-01T13:27:01;100482.19;;;18.62;34.04
8637;BME280;4356;49.068;8.658;2023-02-01T13:29:28;100483.00;;;18.69;33.89
8637;BME280;4356;49.068;8.658;2023-02-01T13:37:53;100467.53;;;18.82;33.93
8637;BME280;4356;49.068;8.658;2023-02-01T13:41:27;100462.50;;;18.86;33.76
8637;BME280;4356;49.068;8.658;2023-02-01T13:43:29;100458.28;;;18.90;33.57
8637;BME280;4356;49.068;8.658;2023-02-01T13:45:57;100456.41;;;18.84;33.60
8637;BME280;4356;49.068;8.658;2023-02-01T13:48:55;100458.28;;;18.96;33.68
8637;BME280;4356;49.068;8.658;2023-02-01T13:54:07;100442.78;;;18.97;33.53
8637;BME280;4356;49.068;8.658;2023-02-01T13:56:49;100446.75;;;19.01;33.30
8637;BME280;4356;49.068;8.658;2023-02-01T14:05:59;100462.03;;;19.08;33.31
8637;BME280;4356;49.068;8.658;2023-02-01T14:13:32;100472.50;;;19.05;33.23
8637;BME280;4356;49.068;8.658;2023-02-01T14:21:22;100483.19;;;19.13;33.21
8637;BME280;4356;49.068;8.658;2023-02-01T14:31:35;100498.91;;;19.24;33.02
8637;BME280;4356;49.068;8.658;2023-02-01T14:34:15;100496.59;;;19.27;32.93
8637;BME280;4356;49.068;8.658;2023-02-01T14:36:49;100490.06;;;19.28;33.12
8637;BME280;4356;49.068;8.658;2023-02-01T14:39:24;100496.38;;;19.29;33.01
8637;BME280;4356;49.068;8.658;2023-02-01T14:42:01;100491.16;;;19.34;32.84
8637;BME280;4356;49.068;8.658;2023-02-01T14:44:34;100490.94;;;19.35;33.01
8637;BME280;4356;49.068;8.658;2023-02-01T14:47:09;100494.69;;;19.41;32.75
8637;BME280;4356;49.068;8.658;2023-02-01T14:49:42;100512.94;;;19.47;32.60
8637;BME280;4356;49.068;8.658;2023-02-01T14:52:17;100498.22;;;19.48;32.58
8637;BME280;4356;49.068;8.658;2023-02-01T14:54:50;100480.03;;;19.42;32.63
8637;BME280;4356;49.068;8.658;2023-02-01T14:57:20;100496.13;;;19.57;32.94
8637;BME280;4356;49.068;8.658;2023-02-01T14:59:49;100470.56;;;19.51;32.71
8637;BME280;4356;49.068;8.658;2023-02-01T15:02:24;100478.28;;;19.61;32.64
8637;BME280;4356;49.068;8.658;2023-02-01T15:04:56;100484.13;;;19.64;32.48
8637;BME280;4356;49.068;8.658;2023-02-01T15:07:24;100475.94;;;19.64;32.40
8637;BME280;4356;49.068;8.658;2023-02-01T15:09:52;100477.41;;;19.67;32.63
8637;BME280;4356;49.068;8.658;2023-02-01T15:12:26;100462.34;;;19.58;32.55
8637;BME280;4356;49.068;8.658;2023-02-01T15:15:12;100485.16;;;19.70;32.67
8637;BME280;4356;49.068;8.658;2023-02-01T15:17:39;100492.53;;;19.69;32.44
8637;BME280;4356;49.068;8.658;2023-02-01T15:20:12;100488.72;;;19.70;32.62
8637;BME280;4356;49.068;8.658;2023-02-01T15:22:39;100479.47;;;19.71;32.46
8637;BME280;4356;49.068;8.658;2023-02-01T15:25:05;100472.38;;;19.70;32.14
8637;BME280;4356;49.068;8.658;2023-02-01T15:27:32;100471.13;;;19.73;32.25
8637;BME280;4356;49.068;8.658;2023-02-01T15:30:15;100477.19;;;19.75;32.25
8637;BME280;4356;49.068;8.658;2023-02-01T15:32:42;100486.19;;;19.75;32.35